sensor_id;sensor_type;location;lat;lon;timestamp;P1;durP1;ratioP1;P2;durP2;ratioP2
7957;SDS011;4024;52.172;5.378;2022-12-13T00:00:38;43.63;;;25.03;;
7957;SDS011;4024;52.172;5.378;2022-12-13T00:03:04;46.47;;;26.10;;
7957;SDS011;4024;52.172;5.378;2022-12-13T00:05:31;40.57;;;23.30;;
7957;SDS011;4024;52.172;5.378;2022-12-13T00:07:58;43.43;;;24.47;;
7957;SDS011;4024;52.172;5.378;2022-12-13T00:10:24;45.97;;;24.33;;
7957;SDS011;4024;52.172;5.378;2022-12-13T00:12:50;41.10;;;23.67;;
7957;SDS011;4024;52.172;5.378;2022-12-13T00:15:16;38.30;;;23.97;;
7957;SDS011;4024;52.172;5.378;2022-12-13T00:17:42;47.07;;;24.80;;
7957;SDS011;4024;52.172;5.378;2022-12-13T00:20:09;37.35;;;22.98;;
7957;SDS011;4024;52.172;5.378;2022-12-13T00:22:35;44.67;;;23.77;;
7957;SDS011;4024;52.172;5.378;2022-12-13T00:25:02;43.50;;;24.93;;
7957;SDS011;4024;52.172;5.378;2022-12-13T00:27:28;40.95;;;22.90;;
7957;SDS011;4024;52.172;5.378;2022-12-13T00:29:54;40.87;;;23.87;;
7957;SDS011;4024;52.172;5.378;2022-12-13T00:32:19;37.83;;;22.90;;
7957;SDS011;4024;52.172;5.378;2022-12-13T00:34:45;45.70;;;25.33;;
7957;SDS011;4024;52.172;5.378;2022-12-13T00:37:11;43.27;;;25.47;;
7957;SDS011;4024;52.172;5.378;2022-12-13T00:39:37;42.10;;;23.50;;
7957;SDS011;4024;52.172;5.378;2022-12-13T00:42:03;44.40;;;25.73;;
7957;SDS011;4024;52.172;5.378;2022-12-13T00:44:29;42.28;;;25.52;;
7957;SDS011;4024;52.172;5.378;2022-12-13T00:46:55;37.13;;;23.17;;
7957;SDS011;4024;52.172;5.378;2022-12-13T00:49:21;44.50;;;24.40;;
7957;SDS011;4024;52.172;5.378;2022-12-13T00:51:47;46.15;;;25.85;;
7957;SDS011;4024;52.172;5.378;2022-12-13T00:54:13;50.13;;;26.93;;
7957;SDS011;4024;52.172;5.378;2022-12-13T00:56:39;41.57;;;22.23;;
7957;SDS011;4024;52.172;5.378;2022-12-13T00:59:05;38.77;;;23.37;;
7957;SDS011;4024;52.172;5.378;2022-12-13T01:01:31;45.20;;;25.03;;
7957;SDS011;4024;52.172;5.378;2022-12-13T01:04:00;38.77;;;23.57;;
7957;SDS011;4024;52.172;5.378;2022-12-13T01:09:04;42.05;;;24.83;;
7957;SDS011;4024;52.172;5.378;2022-12-13T01:11:31;39.10;;;22.80;;
7957;SDS011;4024;52.172;5.378;2022-12-13T01:13:57;42.13;;;24.67;;
7957;SDS011;4024;52.172;5.378;2022-12-13T01:16:23;50.20;;;26.07;;
7957;SDS011;4024;52.172;5.378;2022-12-13T01:18:48;37.57;;;23.30;;
7957;SDS011;4024;52.172;5.378;2022-12-13T01:21:16;39.67;;;23.23;;
7957;SDS011;4024;52.172;5.378;2022-12-13T01:23:43;43.73;;;24.60;;
7957;SDS011;4024;52.172;5.378;2022-12-13T01:26:10;41.75;;;22.80;;
7957;SDS011;4024;52.172;5.378;2022-12-13T01:28:37;42.58;;;23.27;;
7957;SDS011;4024;52.172;5.378;2022-12-13T01:31:04;44.77;;;25.10;;
7957;SDS011;4024;52.172;5.378;2022-12-13T01:33:32;39.35;;;22.75;;
7957;SDS011;4024;52.172;5.378;2022-12-13T01:36:02;44.38;;;24.83;;
7957;SDS011;4024;52.172;5.378;2022-12-13T01:38:30;38.65;;;23.20;;
7957;SDS011;4024;52.172;5.378;2022-12-13T01:40:55;41.97;;;24.10;;
7957;SDS011;4024;52.172;5.378;2022-12-13T01:43:25;41.45;;;23.40;;
7957;SDS011;4024;52.172;5.378;2022-12-13T01:45:54;39.63;;;23.50;;
7957;SDS011;4024;52.172;5.378;2022-12-13T01:48:21;42.37;;;24.80;;
7957;SDS011;4024;52.172;5.378;2022-12-13T01:50:53;38.55;;;22.67;;
7957;SDS011;4024;52.172;5.378;2022-12-13T01:53:23;44.65;;;24.63;;
7957;SDS011;4024;52.172;5.378;2022-12-13T01:55:55;43.10;;;24.48;;
7957;SDS011;4024;52.172;5.378;2022-12-13T01:58:25;43.92;;;25.33;;
7957;SDS011;4024;52.172;5.378;2022-12-13T02:00:51;42.05;;;23.70;;
7957;SDS011;4024;52.172;5.378;2022-12-13T02:03:17;50.47;;;24.97;;
7957;SDS011;4024;52.172;5.378;2022-12-13T02:05:55;42.50;;;24.00;;
7957;SDS011;4024;52.172;5.378;2022-12-13T02:08:27;44.90;;;26.05;;
7957;SDS011;4024;52.172;5.378;2022-12-13T02:10:55;43.92;;;24.40;;
7957;SDS011;4024;52.172;5.378;2022-12-13T02:13:22;40.30;;;23.38;;
7957;SDS011;4024;52.172;5.378;2022-12-13T02:16:34;42.70;;;23.57;;
7957;SDS011;4024;52.172;5.378;2022-12-13T02:34:57;40.90;;;23.65;;
7957;SDS011;4024;52.172;5.378;2022-12-13T02:37:37;44.70;;;24.52;;
7957;SDS011;4024;52.172;5.378;2022-12-13T02:40:30;41.90;;;23.45;;
7957;SDS011;4024;52.172;5.378;2022-12-13T02:43:06;39.60;;;22.63;;
7957;SDS011;4024;52.172;5.378;2022-12-13T02:45:42;38.67;;;22.50;;
7957;SDS011;4024;52.172;5.378;2022-12-13T02:48:11;37.53;;;22.70;;
7957;SDS011;4024;52.172;5.378;2022-12-13T02:50:38;42.00;;;23.90;;
7957;SDS011;4024;52.172;5.378;2022-12-13T02:53:06;38.55;;;23.08;;
7957;SDS011;4024;52.172;5.378;2022-12-13T02:55:34;40.45;;;22.23;;
7957;SDS011;4024;52.172;5.378;2022-12-13T02:58:03;38.97;;;22.45;;
7957;SDS011;4024;52.172;5.378;2022-12-13T03:00:50;38.53;;;22.87;;
7957;SDS011;4024;52.172;5.378;2022-12-13T03:12:51;41.20;;;23.63;;
7957;SDS011;4024;52.172;5.378;2022-12-13T03:15:32;41.45;;;22.38;;
7957;SDS011;4024;52.172;5.378;2022-12-13T03:18:06;39.30;;;23.00;;
7957;SDS011;4024;52.172;5.378;2022-12-13T03:20:43;39.38;;;23.00;;
7957;SDS011;4024;52.172;5.378;2022-12-13T03:23:14;40.72;;;24.27;;
7957;SDS011;4024;52.172;5.378;2022-12-13T03:25:40;41.90;;;22.92;;
7957;SDS011;4024;52.172;5.378;2022-12-13T03:28:06;36.87;;;22.77;;
7957;SDS011;4024;52.172;5.378;2022-12-13T03:30:32;44.63;;;23.97;;
7957;SDS011;4024;52.172;5.378;2022-12-13T03:32:58;41.80;;;22.80;;
7957;SDS011;4024;52.172;5.378;2022-12-13T03:35:24;39.47;;;24.33;;
7957;SDS011;4024;52.172;5.378;2022-12-13T03:37:50;41.47;;;23.58;;
7957;SDS011;4024;52.172;5.378;2022-12-13T03:40:16;36.03;;;22.40;;
7957;SDS011;4024;52.172;5.378;2022-12-13T03:42:43;45.80;;;23.35;;
7957;SDS011;4024;52.172;5.378;2022-12-13T03:45:09;42.20;;;23.50;;
7957;SDS011;4024;52.172;5.378;2022-12-13T03:47:35;41.53;;;24.67;;
7957;SDS011;4024;52.172;5.378;2022-12-13T03:50:00;40.93;;;24.27;;
7957;SDS011;4024;52.172;5.378;2022-12-13T03:52:26;41.40;;;23.30;;
7957;SDS011;4024;52.172;5.378;2022-12-13T03:54:52;39.73;;;22.97;;
7957;SDS011;4024;52.172;5.378;2022-12-13T03:57:17;39.33;;;23.63;;
7957;SDS011;4024;52.172;5.378;2022-12-13T03:59:43;39.87;;;23.07;;
7957;SDS011;4024;52.172;5.378;2022-12-13T04:02:09;42.67;;;23.90;;
7957;SDS011;4024;52.172;5.378;2022-12-13T04:04:34;42.97;;;25.30;;
7957;SDS011;4024;52.172;5.378;2022-12-13T04:07:00;39.20;;;23.50;;
7957;SDS011;4024;52.172;5.378;2022-12-13T04:09:25;41.73;;;22.37;;
7957;SDS011;4024;52.172;5.378;2022-12-13T04:11:51;41.57;;;23.90;;
7957;SDS011;4024;52.172;5.378;2022-12-13T04:14:35;39.78;;;21.73;;
7957;SDS011;4024;52.172;5.378;2022-12-13T04:17:01;42.60;;;22.00;;
7957;SDS011;4024;52.172;5.378;2022-12-13T04:19:27;39.03;;;22.30;;
7957;SDS011;4024;52.172;5.378;2022-12-13T04:21:52;36.63;;;22.67;;
7957;SDS011;4024;52.172;5.378;2022-12-13T04:24:18;40.60;;;21.03;;
7957;SDS011;4024;52.172;5.378;2022-12-13T04:26:45;36.03;;;21.52;;
7957;SDS011;4024;52.172;5.378;2022-12-13T04:29:10;35.63;;;21.67;;
7957;SDS011;4024;52.172;5.378;2022-12-13T04:31:37;37.33;;;22.20;;
7957;SDS011;4024;52.172;5.378;2022-12-13T04:34:03;41.20;;;22.50;;
7957;SDS011;4024;52.172;5.378;2022-12-13T04:36:29;42.83;;;22.70;;
7957;SDS011;4024;52.172;5.378;2022-12-13T04:38:54;37.80;;;23.40;;
7957;SDS011;4024;52.172;5.378;2022-12-13T04:41:20;42.87;;;23.17;;
7957;SDS011;4024;52.172;5.378;2022-12-13T04:43:49;43.63;;;24.37;;
7957;SDS011;4024;52.172;5.378;2022-12-13T04:46:17;40.75;;;23.27;;
7957;SDS011;4024;52.172;5.378;2022-12-13T04:48:43;47.17;;;24.95;;
7957;SDS011;4024;52.172;5.378;2022-12-13T04:51:09;40.23;;;23.23;;
7957;SDS011;4024;52.172;5.378;2022-12-13T04:53:34;41.63;;;23.40;;
7957;SDS011;4024;52.172;5.378;2022-12-13T04:56:01;42.83;;;23.37;;
7957;SDS011;4024;52.172;5.378;2022-12-13T04:58:28;42.47;;;23.42;;
7957;SDS011;4024;52.172;5.378;2022-12-13T05:00:54;39.27;;;22.77;;
7957;SDS011;4024;52.172;5.378;2022-12-13T05:03:20;43.43;;;22.53;;
7957;SDS011;4024;52.172;5.378;2022-12-13T05:05:46;45.08;;;24.00;;
7957;SDS011;4024;52.172;5.378;2022-12-13T05:08:12;44.50;;;24.37;;
7957;SDS011;4024;52.172;5.378;2022-12-13T05:10:38;40.00;;;23.90;;
7957;SDS011;4024;52.172;5.378;2022-12-13T05:13:03;40.70;;;22.27;;
7957;SDS011;4024;52.172;5.378;2022-12-13T05:15:30;41.53;;;22.83;;
7957;SDS011;4024;52.172;5.378;2022-12-13T05:18:13;38.47;;;22.80;;
7957;SDS011;4024;52.172;5.378;2022-12-13T05:20:39;41.83;;;23.03;;
7957;SDS011;4024;52.172;5.378;2022-12-13T05:23:05;41.28;;;24.50;;
7957;SDS011;4024;52.172;5.378;2022-12-13T05:25:31;39.73;;;22.83;;
7957;SDS011;4024;52.172;5.378;2022-12-13T05:27:57;39.63;;;21.85;;
7957;SDS011;4024;52.172;5.378;2022-12-13T05:30:22;37.70;;;22.13;;
7957;SDS011;4024;52.172;5.378;2022-12-13T05:32:48;37.73;;;22.63;;
7957;SDS011;4024;52.172;5.378;2022-12-13T05:35:14;37.07;;;21.37;;
7957;SDS011;4024;52.172;5.378;2022-12-13T05:37:40;37.15;;;20.95;;
7957;SDS011;4024;52.172;5.378;2022-12-13T05:40:06;35.20;;;22.10;;
7957;SDS011;4024;52.172;5.378;2022-12-13T05:42:33;38.47;;;21.83;;
7957;SDS011;4024;52.172;5.378;2022-12-13T05:45:02;43.58;;;22.50;;
7957;SDS011;4024;52.172;5.378;2022-12-13T05:47:28;40.28;;;23.15;;
7957;SDS011;4024;52.172;5.378;2022-12-13T05:49:53;39.50;;;21.93;;
7957;SDS011;4024;52.172;5.378;2022-12-13T05:52:20;38.77;;;21.33;;
7957;SDS011;4024;52.172;5.378;2022-12-13T05:54:46;41.25;;;22.02;;
7957;SDS011;4024;52.172;5.378;2022-12-13T05:57:12;40.83;;;22.83;;
7957;SDS011;4024;52.172;5.378;2022-12-13T05:59:39;35.50;;;21.13;;
7957;SDS011;4024;52.172;5.378;2022-12-13T06:02:05;37.33;;;22.10;;
7957;SDS011;4024;52.172;5.378;2022-12-13T06:04:30;40.57;;;23.60;;
7957;SDS011;4024;52.172;5.378;2022-12-13T06:06:56;35.17;;;21.53;;
7957;SDS011;4024;52.172;5.378;2022-12-13T06:09:22;37.10;;;22.57;;
7957;SDS011;4024;52.172;5.378;2022-12-13T06:11:48;41.47;;;22.30;;
7957;SDS011;4024;52.172;5.378;2022-12-13T06:14:14;35.33;;;21.02;;
7957;SDS011;4024;52.172;5.378;2022-12-13T06:16:40;35.50;;;22.08;;
7957;SDS011;4024;52.172;5.378;2022-12-13T06:19:06;32.43;;;20.57;;
7957;SDS011;4024;52.172;5.378;2022-12-13T06:21:32;41.97;;;22.38;;
7957;SDS011;4024;52.172;5.378;2022-12-13T06:23:58;37.63;;;21.60;;
7957;SDS011;4024;52.172;5.378;2022-12-13T06:26:24;39.03;;;21.40;;
7957;SDS011;4024;52.172;5.378;2022-12-13T06:28:50;38.73;;;21.80;;
7957;SDS011;4024;52.172;5.378;2022-12-13T06:31:15;43.83;;;22.33;;
7957;SDS011;4024;52.172;5.378;2022-12-13T06:33:41;40.13;;;22.17;;
7957;SDS011;4024;52.172;5.378;2022-12-13T06:36:07;37.10;;;22.37;;
7957;SDS011;4024;52.172;5.378;2022-12-13T06:38:33;40.53;;;22.00;;
7957;SDS011;4024;52.172;5.378;2022-12-13T06:41:09;40.30;;;22.23;;
7957;SDS011;4024;52.172;5.378;2022-12-13T06:43:37;34.92;;;21.27;;
7957;SDS011;4024;52.172;5.378;2022-12-13T06:46:05;38.10;;;22.27;;
7957;SDS011;4024;52.172;5.378;2022-12-13T06:48:30;32.97;;;21.03;;
7957;SDS011;4024;52.172;5.378;2022-12-13T06:51:00;33.88;;;20.50;;
7957;SDS011;4024;52.172;5.378;2022-12-13T06:53:27;37.55;;;21.15;;
7957;SDS011;4024;52.172;5.378;2022-12-13T06:55:54;37.67;;;22.83;;
7957;SDS011;4024;52.172;5.378;2022-12-13T06:58:20;39.20;;;22.48;;
7957;SDS011;4024;52.172;5.378;2022-12-13T07:00:45;42.20;;;23.27;;
7957;SDS011;4024;52.172;5.378;2022-12-13T07:03:11;39.77;;;22.50;;
7957;SDS011;4024;52.172;5.378;2022-12-13T07:05:37;43.03;;;22.93;;
7957;SDS011;4024;52.172;5.378;2022-12-13T07:08:03;41.10;;;23.02;;
7957;SDS011;4024;52.172;5.378;2022-12-13T07:10:29;36.47;;;20.93;;
7957;SDS011;4024;52.172;5.378;2022-12-13T07:12:55;38.72;;;22.48;;
7957;SDS011;4024;52.172;5.378;2022-12-13T07:15:21;38.33;;;21.47;;
7957;SDS011;4024;52.172;5.378;2022-12-13T07:17:50;40.07;;;21.40;;
7957;SDS011;4024;52.172;5.378;2022-12-13T07:20:16;39.67;;;23.95;;
7957;SDS011;4024;52.172;5.378;2022-12-13T07:22:44;35.50;;;21.92;;
7957;SDS011;4024;52.172;5.378;2022-12-13T07:25:10;40.58;;;22.42;;
7957;SDS011;4024;52.172;5.378;2022-12-13T07:27:36;37.57;;;21.83;;
7957;SDS011;4024;52.172;5.378;2022-12-13T07:30:02;39.70;;;21.17;;
7957;SDS011;4024;52.172;5.378;2022-12-13T07:32:28;35.45;;;21.45;;
7957;SDS011;4024;52.172;5.378;2022-12-13T07:34:54;37.50;;;21.50;;
7957;SDS011;4024;52.172;5.378;2022-12-13T07:37:19;39.07;;;22.03;;
7957;SDS011;4024;52.172;5.378;2022-12-13T07:39:45;34.70;;;20.57;;
7957;SDS011;4024;52.172;5.378;2022-12-13T07:42:10;39.80;;;22.63;;
7957;SDS011;4024;52.172;5.378;2022-12-13T07:44:36;42.47;;;22.13;;
7957;SDS011;4024;52.172;5.378;2022-12-13T07:47:02;39.80;;;22.30;;
7957;SDS011;4024;52.172;5.378;2022-12-13T07:49:27;37.50;;;22.33;;
7957;SDS011;4024;52.172;5.378;2022-12-13T07:51:53;32.00;;;21.53;;
7957;SDS011;4024;52.172;5.378;2022-12-13T07:54:18;35.37;;;21.27;;
7957;SDS011;4024;52.172;5.378;2022-12-13T07:56:44;35.60;;;21.63;;
7957;SDS011;4024;52.172;5.378;2022-12-13T07:59:10;37.90;;;22.10;;
7957;SDS011;4024;52.172;5.378;2022-12-13T08:01:35;39.03;;;21.90;;
7957;SDS011;4024;52.172;5.378;2022-12-13T08:04:02;39.20;;;22.83;;
7957;SDS011;4024;52.172;5.378;2022-12-13T08:06:29;43.78;;;22.95;;
7957;SDS011;4024;52.172;5.378;2022-12-13T08:08:58;41.75;;;23.05;;
7957;SDS011;4024;52.172;5.378;2022-12-13T08:11:23;34.30;;;20.87;;
7957;SDS011;4024;52.172;5.378;2022-12-13T08:13:49;39.77;;;22.97;;
7957;SDS011;4024;52.172;5.378;2022-12-13T08:16:15;38.67;;;22.03;;
7957;SDS011;4024;52.172;5.378;2022-12-13T08:18:42;40.53;;;22.92;;
7957;SDS011;4024;52.172;5.378;2022-12-13T08:21:09;37.28;;;22.98;;
7957;SDS011;4024;52.172;5.378;2022-12-13T08:23:35;43.90;;;22.97;;
7957;SDS011;4024;52.172;5.378;2022-12-13T08:26:01;37.70;;;22.33;;
7957;SDS011;4024;52.172;5.378;2022-12-13T08:28:28;45.25;;;24.83;;
7957;SDS011;4024;52.172;5.378;2022-12-13T08:30:54;41.25;;;23.00;;
7957;SDS011;4024;52.172;5.378;2022-12-13T08:33:20;43.60;;;22.50;;
7957;SDS011;4024;52.172;5.378;2022-12-13T08:35:46;38.58;;;22.42;;
7957;SDS011;4024;52.172;5.378;2022-12-13T08:38:12;41.93;;;23.30;;
7957;SDS011;4024;52.172;5.378;2022-12-13T08:40:38;47.38;;;25.17;;
7957;SDS011;4024;52.172;5.378;2022-12-13T08:43:04;42.20;;;22.20;;
7957;SDS011;4024;52.172;5.378;2022-12-13T08:45:30;47.67;;;24.43;;
7957;SDS011;4024;52.172;5.378;2022-12-13T08:47:58;46.72;;;25.67;;
7957;SDS011;4024;52.172;5.378;2022-12-13T08:50:24;41.30;;;23.65;;
7957;SDS011;4024;52.172;5.378;2022-12-13T08:52:51;41.17;;;22.45;;
7957;SDS011;4024;52.172;5.378;2022-12-13T08:55:17;44.07;;;23.40;;
7957;SDS011;4024;52.172;5.378;2022-12-13T08:57:43;42.67;;;24.87;;
7957;SDS011;4024;52.172;5.378;2022-12-13T09:00:11;45.65;;;23.65;;
7957;SDS011;4024;52.172;5.378;2022-12-13T09:02:40;38.35;;;24.27;;
7957;SDS011;4024;52.172;5.378;2022-12-13T09:05:06;45.80;;;24.73;;
7957;SDS011;4024;52.172;5.378;2022-12-13T09:07:34;47.57;;;26.63;;
7957;SDS011;4024;52.172;5.378;2022-12-13T09:10:00;48.97;;;25.38;;
7957;SDS011;4024;52.172;5.378;2022-12-13T09:12:27;43.65;;;23.35;;
7957;SDS011;4024;52.172;5.378;2022-12-13T09:14:52;44.67;;;25.13;;
7957;SDS011;4024;52.172;5.378;2022-12-13T09:17:18;49.03;;;27.63;;
7957;SDS011;4024;52.172;5.378;2022-12-13T09:19:44;50.00;;;27.57;;
7957;SDS011;4024;52.172;5.378;2022-12-13T09:22:10;45.10;;;26.90;;
7957;SDS011;4024;52.172;5.378;2022-12-13T09:24:36;47.22;;;26.75;;
7957;SDS011;4024;52.172;5.378;2022-12-13T09:27:03;51.87;;;26.90;;
7957;SDS011;4024;52.172;5.378;2022-12-13T09:29:29;45.80;;;26.53;;
7957;SDS011;4024;52.172;5.378;2022-12-13T09:31:57;45.93;;;26.17;;
7957;SDS011;4024;52.172;5.378;2022-12-13T09:34:24;46.43;;;27.17;;
7957;SDS011;4024;52.172;5.378;2022-12-13T09:36:49;49.07;;;28.80;;
7957;SDS011;4024;52.172;5.378;2022-12-13T09:39:15;48.27;;;27.63;;
7957;SDS011;4024;52.172;5.378;2022-12-13T09:41:42;44.17;;;26.90;;
7957;SDS011;4024;52.172;5.378;2022-12-13T09:44:19;54.57;;;28.73;;
7957;SDS011;4024;52.172;5.378;2022-12-13T09:46:48;49.37;;;27.83;;
7957;SDS011;4024;52.172;5.378;2022-12-13T09:49:22;55.47;;;29.67;;
7957;SDS011;4024;52.172;5.378;2022-12-13T09:51:54;47.37;;;28.70;;
7957;SDS011;4024;52.172;5.378;2022-12-13T09:54:23;52.20;;;29.90;;
7957;SDS011;4024;52.172;5.378;2022-12-13T09:56:49;51.77;;;28.63;;
7957;SDS011;4024;52.172;5.378;2022-12-13T09:59:27;49.60;;;27.07;;
7957;SDS011;4024;52.172;5.378;2022-12-13T10:01:55;54.50;;;30.03;;
7957;SDS011;4024;52.172;5.378;2022-12-13T10:04:26;58.60;;;30.13;;
7957;SDS011;4024;52.172;5.378;2022-12-13T10:06:53;54.33;;;28.50;;
7957;SDS011;4024;52.172;5.378;2022-12-13T10:09:20;51.43;;;29.23;;
7957;SDS011;4024;52.172;5.378;2022-12-13T10:11:50;51.20;;;30.33;;
7957;SDS011;4024;52.172;5.378;2022-12-13T10:14:26;51.07;;;29.93;;
7957;SDS011;4024;52.172;5.378;2022-12-13T10:16:59;55.27;;;31.07;;
7957;SDS011;4024;52.172;5.378;2022-12-13T10:22:03;53.77;;;29.97;;
7957;SDS011;4024;52.172;5.378;2022-12-13T10:27:37;51.13;;;28.90;;
7957;SDS011;4024;52.172;5.378;2022-12-13T10:30:14;56.03;;;31.07;;
7957;SDS011;4024;52.172;5.378;2022-12-13T10:32:54;51.17;;;29.87;;
7957;SDS011;4024;52.172;5.378;2022-12-13T10:35:25;50.27;;;29.37;;
7957;SDS011;4024;52.172;5.378;2022-12-13T10:37:56;53.60;;;29.97;;
7957;SDS011;4024;52.172;5.378;2022-12-13T10:45:42;48.97;;;29.00;;
7957;SDS011;4024;52.172;5.378;2022-12-13T10:48:29;47.80;;;27.93;;
7957;SDS011;4024;52.172;5.378;2022-12-13T10:51:07;52.57;;;27.90;;
7957;SDS011;4024;52.172;5.378;2022-12-13T10:53:56;47.27;;;29.33;;
7957;SDS011;4024;52.172;5.378;2022-12-13T10:56:22;49.00;;;28.90;;
7957;SDS011;4024;52.172;5.378;2022-12-13T10:59:16;54.33;;;29.80;;
7957;SDS011;4024;52.172;5.378;2022-12-13T11:01:47;47.60;;;29.67;;
7957;SDS011;4024;52.172;5.378;2022-12-13T11:04:30;44.77;;;27.10;;
7957;SDS011;4024;52.172;5.378;2022-12-13T11:07:00;52.73;;;28.80;;
7957;SDS011;4024;52.172;5.378;2022-12-13T11:09:44;49.70;;;28.57;;
7957;SDS011;4024;52.172;5.378;2022-12-13T11:12:10;48.57;;;27.93;;
7957;SDS011;4024;52.172;5.378;2022-12-13T11:14:39;49.33;;;29.17;;
7957;SDS011;4024;52.172;5.378;2022-12-13T11:17:23;49.57;;;30.27;;
7957;SDS011;4024;52.172;5.378;2022-12-13T11:19:52;47.07;;;28.63;;
7957;SDS011;4024;52.172;5.378;2022-12-13T11:25:38;44.03;;;27.87;;
7957;SDS011;4024;52.172;5.378;2022-12-13T11:30:30;44.47;;;27.13;;
7957;SDS011;4024;52.172;5.378;2022-12-13T11:33:23;44.27;;;26.07;;
7957;SDS011;4024;52.172;5.378;2022-12-13T11:41:41;47.10;;;27.93;;
7957;SDS011;4024;52.172;5.378;2022-12-13T11:44:32;49.03;;;28.63;;
7957;SDS011;4024;52.172;5.378;2022-12-13T11:47:13;45.50;;;27.87;;
7957;SDS011;4024;52.172;5.378;2022-12-13T11:49:49;44.57;;;27.33;;
7957;SDS011;4024;52.172;5.378;2022-12-13T11:54:58;46.37;;;28.20;;
7957;SDS011;4024;52.172;5.378;2022-12-13T11:57:30;48.30;;;26.30;;
7957;SDS011;4024;52.172;5.378;2022-12-13T12:00:06;47.17;;;28.33;;
7957;SDS011;4024;52.172;5.378;2022-12-13T12:02:48;43.73;;;26.13;;
7957;SDS011;4024;52.172;5.378;2022-12-13T12:05:26;42.97;;;28.23;;
7957;SDS011;4024;52.172;5.378;2022-12-13T12:07:56;43.13;;;25.37;;
7957;SDS011;4024;52.172;5.378;2022-12-13T12:10:51;43.80;;;26.37;;
7957;SDS011;4024;52.172;5.378;2022-12-13T12:13:37;48.20;;;27.57;;
7957;SDS011;4024;52.172;5.378;2022-12-13T12:18:54;46.10;;;28.07;;
7957;SDS011;4024;52.172;5.378;2022-12-13T12:21:32;44.60;;;26.93;;
7957;SDS011;4024;52.172;5.378;2022-12-13T12:30:00;45.93;;;26.87;;
7957;SDS011;4024;52.172;5.378;2022-12-13T12:37:46;43.37;;;25.20;;
7957;SDS011;4024;52.172;5.378;2022-12-13T12:43:20;45.57;;;27.07;;
7957;SDS011;4024;52.172;5.378;2022-12-13T12:46:05;44.17;;;26.47;;
7957;SDS011;4024;52.172;5.378;2022-12-13T12:57:38;40.87;;;24.83;;
7957;SDS011;4024;52.172;5.378;2022-12-13T13:00:16;38.37;;;24.07;;
7957;SDS011;4024;52.172;5.378;2022-12-13T13:02:58;46.13;;;25.93;;
7957;SDS011;4024;52.172;5.378;2022-12-13T13:05:54;45.43;;;26.63;;
7957;SDS011;4024;52.172;5.378;2022-12-13T13:08:27;41.80;;;25.37;;
7957;SDS011;4024;52.172;5.378;2022-12-13T13:10:58;41.87;;;25.63;;
7957;SDS011;4024;52.172;5.378;2022-12-13T13:15:58;42.97;;;25.00;;
7957;SDS011;4024;52.172;5.378;2022-12-13T13:23:47;42.40;;;27.43;;
7957;SDS011;4024;52.172;5.378;2022-12-13T13:34:50;43.00;;;25.53;;
7957;SDS011;4024;52.172;5.378;2022-12-13T13:42:21;41.60;;;26.50;;
7957;SDS011;4024;52.172;5.378;2022-12-13T13:49:57;46.93;;;26.43;;
7957;SDS011;4024;52.172;5.378;2022-12-13T13:53:02;46.13;;;27.30;;
7957;SDS011;4024;52.172;5.378;2022-12-13T13:55:46;46.30;;;27.87;;
7957;SDS011;4024;52.172;5.378;2022-12-13T14:16:19;43.23;;;26.03;;
7957;SDS011;4024;52.172;5.378;2022-12-13T14:22:30;46.60;;;27.13;;
7957;SDS011;4024;52.172;5.378;2022-12-13T14:27:49;44.23;;;27.00;;
7957;SDS011;4024;52.172;5.378;2022-12-13T14:30:22;43.40;;;26.93;;
7957;SDS011;4024;52.172;5.378;2022-12-13T14:32:49;40.63;;;25.30;;
7957;SDS011;4024;52.172;5.378;2022-12-13T14:35:27;46.97;;;28.30;;
7957;SDS011;4024;52.172;5.378;2022-12-13T14:38:04;43.13;;;25.10;;
7957;SDS011;4024;52.172;5.378;2022-12-13T14:40:33;49.20;;;26.87;;
7957;SDS011;4024;52.172;5.378;2022-12-13T14:43:00;44.73;;;27.73;;
7957;SDS011;4024;52.172;5.378;2022-12-13T14:45:31;40.43;;;25.87;;
7957;SDS011;4024;52.172;5.378;2022-12-13T14:48:02;42.70;;;26.63;;
7957;SDS011;4024;52.172;5.378;2022-12-13T14:50:34;42.63;;;26.83;;
7957;SDS011;4024;52.172;5.378;2022-12-13T14:53:01;43.03;;;27.17;;
7957;SDS011;4024;52.172;5.378;2022-12-13T14:55:34;44.27;;;27.00;;
7957;SDS011;4024;52.172;5.378;2022-12-13T14:58:02;42.33;;;26.07;;
7957;SDS011;4024;52.172;5.378;2022-12-13T15:00:39;45.87;;;27.80;;
7957;SDS011;4024;52.172;5.378;2022-12-13T15:03:05;38.00;;;24.83;;
7957;SDS011;4024;52.172;5.378;2022-12-13T15:05:40;42.63;;;25.30;;
7957;SDS011;4024;52.172;5.378;2022-12-13T15:08:12;42.87;;;25.93;;
7957;SDS011;4024;52.172;5.378;2022-12-13T15:10:41;45.07;;;25.60;;
7957;SDS011;4024;52.172;5.378;2022-12-13T15:13:52;44.60;;;26.10;;
7957;SDS011;4024;52.172;5.378;2022-12-13T15:16:06;47.03;;;26.57;;
7957;SDS011;4024;52.172;5.378;2022-12-13T15:18:38;45.47;;;26.87;;
7957;SDS011;4024;52.172;5.378;2022-12-13T15:21:03;43.70;;;26.37;;
7957;SDS011;4024;52.172;5.378;2022-12-13T15:23:48;42.80;;;25.23;;
7957;SDS011;4024;52.172;5.378;2022-12-13T15:26:18;46.90;;;26.73;;
7957;SDS011;4024;52.172;5.378;2022-12-13T15:28:47;43.37;;;24.67;;
7957;SDS011;4024;52.172;5.378;2022-12-13T15:31:17;42.97;;;25.43;;
7957;SDS011;4024;52.172;5.378;2022-12-13T15:33:43;43.23;;;26.43;;
7957;SDS011;4024;52.172;5.378;2022-12-13T15:38:44;40.73;;;25.43;;
7957;SDS011;4024;52.172;5.378;2022-12-13T15:41:33;38.13;;;23.77;;
7957;SDS011;4024;52.172;5.378;2022-12-13T15:44:06;41.77;;;24.40;;
7957;SDS011;4024;52.172;5.378;2022-12-13T15:46:48;41.43;;;24.60;;
7957;SDS011;4024;52.172;5.378;2022-12-13T15:51:57;40.13;;;24.37;;
7957;SDS011;4024;52.172;5.378;2022-12-13T15:54:25;41.40;;;24.43;;
7957;SDS011;4024;52.172;5.378;2022-12-13T15:59:38;43.37;;;26.53;;
7957;SDS011;4024;52.172;5.378;2022-12-13T16:02:12;36.83;;;24.83;;
7957;SDS011;4024;52.172;5.378;2022-12-13T16:04:45;41.50;;;25.60;;
7957;SDS011;4024;52.172;5.378;2022-12-13T16:09:51;45.53;;;24.13;;
7957;SDS011;4024;52.172;5.378;2022-12-13T16:12:19;40.43;;;24.70;;
7957;SDS011;4024;52.172;5.378;2022-12-13T16:14:50;39.47;;;23.40;;
7957;SDS011;4024;52.172;5.378;2022-12-13T16:17:27;38.70;;;24.97;;
7957;SDS011;4024;52.172;5.378;2022-12-13T16:19:54;40.07;;;23.70;;
7957;SDS011;4024;52.172;5.378;2022-12-13T16:22:22;37.20;;;22.50;;
7957;SDS011;4024;52.172;5.378;2022-12-13T16:24:48;39.33;;;23.53;;
7957;SDS011;4024;52.172;5.378;2022-12-13T16:27:14;39.87;;;23.90;;
7957;SDS011;4024;52.172;5.378;2022-12-13T16:29:41;39.00;;;23.23;;
7957;SDS011;4024;52.172;5.378;2022-12-13T16:32:08;39.57;;;24.57;;
7957;SDS011;4024;52.172;5.378;2022-12-13T16:34:35;40.30;;;24.20;;
7957;SDS011;4024;52.172;5.378;2022-12-13T16:37:02;43.20;;;24.20;;
7957;SDS011;4024;52.172;5.378;2022-12-13T16:39:27;40.20;;;23.70;;
7957;SDS011;4024;52.172;5.378;2022-12-13T16:41:53;41.27;;;24.97;;
7957;SDS011;4024;52.172;5.378;2022-12-13T16:44:28;36.63;;;22.60;;
7957;SDS011;4024;52.172;5.378;2022-12-13T16:47:08;41.63;;;23.13;;
7957;SDS011;4024;52.172;5.378;2022-12-13T16:49:36;37.17;;;22.20;;
7957;SDS011;4024;52.172;5.378;2022-12-13T16:52:02;40.07;;;23.07;;
7957;SDS011;4024;52.172;5.378;2022-12-13T16:54:31;42.27;;;24.67;;
7957;SDS011;4024;52.172;5.378;2022-12-13T16:56:57;41.90;;;24.50;;
7957;SDS011;4024;52.172;5.378;2022-12-13T16:59:23;38.20;;;23.83;;
7957;SDS011;4024;52.172;5.378;2022-12-13T17:01:50;39.07;;;24.13;;
7957;SDS011;4024;52.172;5.378;2022-12-13T17:04:18;40.90;;;23.97;;
7957;SDS011;4024;52.172;5.378;2022-12-13T17:06:46;36.33;;;23.70;;
7957;SDS011;4024;52.172;5.378;2022-12-13T17:09:16;40.43;;;23.33;;
7957;SDS011;4024;52.172;5.378;2022-12-13T17:11:43;46.83;;;25.43;;
7957;SDS011;4024;52.172;5.378;2022-12-13T17:14:08;39.53;;;23.77;;
7957;SDS011;4024;52.172;5.378;2022-12-13T17:16:34;41.30;;;23.20;;
7957;SDS011;4024;52.172;5.378;2022-12-13T17:19:00;47.03;;;24.60;;
7957;SDS011;4024;52.172;5.378;2022-12-13T17:21:26;41.50;;;23.33;;